Terminal Aerodrome Forecast
Issued by NWS

Home | Current Version | Previous Version | Text Only | Print | Product List | Glossary On
Versions: 1 2 3 4 5 6 7 8 9 10 11 12 13 14
000
FTUS45 KCYS 240520
TAFLAR
TAF
KLAR 240520Z 2406/2506 27010KT P6SM OVC100
     FM241500 15014KT P6SM SCT250
     FM242100 14013KT P6SM BKN250=

USA.gov is the U.S. government's official web portal to all federal, state and local government web resources and services.